Terminal Aerodrome Forecast
Issued by NWS

Home | Current Version | Previous Version | Text Only | Print | Product List | Glossary On
Versions: 1 2 3 4 5 6 7 8 9 10 11 12 13 14
000
FTUS43 KPAH 251720
TAFOWB
TAF
KOWB 251720Z 2518/2618 28013G20KT P6SM BKN045
      TEMPO 2518/2520 BKN025 OVC040
     FM260130 23004KT P6SM SKC
     FM261500 16006KT P6SM SCT045 BKN180=

USA.gov is the U.S. government's official web portal to all federal, state and local government web resources and services.